sensor_id;sensor_type;location;lat;lon;timestamp;pressure;altitude;pressure_sealevel;temperature;humidity
46303;BME280;32029;51.358;5.628;2024-02-15T00:00:23;101419.31;;;14.65;100.00
46303;BME280;32029;51.358;5.628;2024-02-15T00:02:52;101429.53;;;14.65;100.00
46303;BME280;32029;51.358;5.628;2024-02-15T00:05:19;101428.75;;;14.71;100.00
46303;BME280;32029;51.358;5.628;2024-02-15T00:07:46;101432.13;;;14.73;100.00
46303;BME280;32029;51.358;5.628;2024-02-15T00:10:15;101415.31;;;14.68;100.00
46303;BME280;32029;51.358;5.628;2024-02-15T00:12:42;101431.66;;;14.91;100.00
46303;BME280;32029;51.358;5.628;2024-02-15T00:15:09;101426.28;;;14.83;100.00
46303;BME280;32029;51.358;5.628;2024-02-15T00:17:37;101425.84;;;14.86;100.00
46303;BME280;32029;51.358;5.628;2024-02-15T00:20:05;101421.00;;;14.88;100.00
46303;BME280;32029;51.358;5.628;2024-02-15T00:22:36;101421.63;;;14.90;100.00
46303;BME280;32029;51.358;5.628;2024-02-15T00:25:04;101432.03;;;14.88;100.00
46303;BME280;32029;51.358;5.628;2024-02-15T00:27:32;101428.38;;;14.81;100.00
46303;BME280;32029;51.358;5.628;2024-02-15T00:30:03;101424.09;;;14.78;100.00
46303;BME280;32029;51.358;5.628;2024-02-15T00:32:34;101417.78;;;14.84;100.00
46303;BME280;32029;51.358;5.628;2024-02-15T00:35:01;101404.63;;;14.86;100.00
46303;BME280;32029;51.358;5.628;2024-02-15T00:37:28;101415.22;;;14.83;100.00
46303;BME280;32029;51.358;5.628;2024-02-15T00:39:55;101418.94;;;14.68;100.00
46303;BME280;32029;51.358;5.628;2024-02-15T00:42:22;101404.22;;;14.61;100.00
46303;BME280;32029;51.358;5.628;2024-02-15T00:44:50;101410.41;;;14.63;100.00
46303;BME280;32029;51.358;5.628;2024-02-15T00:47:17;101424.06;;;14.72;100.00
46303;BME280;32029;51.358;5.628;2024-02-15T00:49:46;101409.56;;;14.63;100.00
46303;BME280;32029;51.358;5.628;2024-02-15T00:52:13;101411.72;;;14.67;100.00
46303;BME280;32029;51.358;5.628;2024-02-15T00:54:40;101398.50;;;14.63;100.00
46303;BME280;32029;51.358;5.628;2024-02-15T00:57:07;101398.50;;;14.63;100.00
46303;BME280;32029;51.358;5.628;2024-02-15T00:59:34;101406.78;;;14.63;100.00
46303;BME280;32029;51.358;5.628;2024-02-15T01:02:04;101406.13;;;14.61;100.00
46303;BME280;32029;51.358;5.628;2024-02-15T01:04:34;101402.91;;;14.57;100.00
46303;BME280;32029;51.358;5.628;2024-02-15T01:07:01;101399.59;;;14.47;100.00
46303;BME280;32029;51.358;5.628;2024-02-15T01:09:29;101389.75;;;14.38;100.00
46303;BME280;32029;51.358;5.628;2024-02-15T01:11:56;101397.53;;;14.49;100.00
46303;BME280;32029;51.358;5.628;2024-02-15T01:14:23;101400.97;;;14.51;100.00
46303;BME280;32029;51.358;5.628;2024-02-15T01:16:49;101401.13;;;14.50;100.00
46303;BME280;32029;51.358;5.628;2024-02-15T01:19:16;101392.25;;;14.33;100.00
46303;BME280;32029;51.358;5.628;2024-02-15T01:21:43;101401.63;;;14.38;100.00
46303;BME280;32029;51.358;5.628;2024-02-15T01:24:10;101401.19;;;14.35;100.00
46303;BME280;32029;51.358;5.628;2024-02-15T01:26:37;101399.88;;;14.31;100.00
46303;BME280;32029;51.358;5.628;2024-02-15T01:29:04;101405.97;;;14.26;100.00
46303;BME280;32029;51.358;5.628;2024-02-15T01:31:31;101406.19;;;14.25;100.00
46303;BME280;32029;51.358;5.628;2024-02-15T01:33:58;101394.75;;;14.28;100.00
46303;BME280;32029;51.358;5.628;2024-02-15T01:36:25;101399.47;;;14.34;100.00
46303;BME280;32029;51.358;5.628;2024-02-15T01:38:54;101385.66;;;14.34;100.00
46303;BME280;32029;51.358;5.628;2024-02-15T01:41:20;101389.75;;;14.38;100.00
46303;BME280;32029;51.358;5.628;2024-02-15T01:43:48;101380.22;;;14.40;100.00
46303;BME280;32029;51.358;5.628;2024-02-15T01:46:16;101385.69;;;14.55;100.00
46303;BME280;32029;51.358;5.628;2024-02-15T01:48:44;101391.22;;;14.55;100.00
46303;BME280;32029;51.358;5.628;2024-02-15T01:51:13;101388.03;;;14.58;100.00
46303;BME280;32029;51.358;5.628;2024-02-15T01:53:42;101381.88;;;14.56;100.00
46303;BME280;32029;51.358;5.628;2024-02-15T01:56:11;101364.00;;;14.52;100.00
46303;BME280;32029;51.358;5.628;2024-02-15T01:58:40;101370.88;;;14.63;100.00
46303;BME280;32029;51.358;5.628;2024-02-15T02:01:08;101370.50;;;14.73;100.00
46303;BME280;32029;51.358;5.628;2024-02-15T02:03:35;101358.56;;;14.65;100.00
46303;BME280;32029;51.358;5.628;2024-02-15T02:06:02;101370.34;;;14.81;100.00
46303;BME280;32029;51.358;5.628;2024-02-15T02:08:30;101357.94;;;14.70;100.00
46303;BME280;32029;51.358;5.628;2024-02-15T02:10:56;101358.84;;;14.77;100.00
46303;BME280;32029;51.358;5.628;2024-02-15T02:13:23;101362.22;;;14.73;100.00
46303;BME280;32029;51.358;5.628;2024-02-15T02:15:50;101356.06;;;14.70;100.00
46303;BME280;32029;51.358;5.628;2024-02-15T02:18:18;101357.38;;;14.75;100.00
46303;BME280;32029;51.358;5.628;2024-02-15T02:20:45;101340.50;;;14.63;100.00
46303;BME280;32029;51.358;5.628;2024-02-15T02:23:14;101348.38;;;14.66;100.00
46303;BME280;32029;51.358;5.628;2024-02-15T02:25:44;101346.22;;;14.61;100.00
46303;BME280;32029;51.358;5.628;2024-02-15T02:28:11;101340.56;;;14.48;100.00
46303;BME280;32029;51.358;5.628;2024-02-15T02:30:39;101340.38;;;14.50;100.00
46303;BME280;32029;51.358;5.628;2024-02-15T02:33:12;101358.47;;;14.52;100.00
46303;BME280;32029;51.358;5.628;2024-02-15T02:35:45;101347.81;;;14.49;100.00
46303;BME280;32029;51.358;5.628;2024-02-15T02:38:13;101343.16;;;14.50;100.00
46303;BME280;32029;51.358;5.628;2024-02-15T02:40:40;101337.75;;;14.63;100.00
46303;BME280;32029;51.358;5.628;2024-02-15T02:43:08;101342.59;;;14.61;100.00
46303;BME280;32029;51.358;5.628;2024-02-15T02:45:35;101340.22;;;14.51;100.00
46303;BME280;32029;51.358;5.628;2024-02-15T02:48:02;101337.69;;;14.56;100.00
46303;BME280;32029;51.358;5.628;2024-02-15T02:50:29;101345.59;;;14.66;100.00
46303;BME280;32029;51.358;5.628;2024-02-15T02:52:56;101323.63;;;14.51;100.00
46303;BME280;32029;51.358;5.628;2024-02-15T02:55:22;101321.75;;;14.58;100.00
46303;BME280;32029;51.358;5.628;2024-02-15T02:57:49;101315.66;;;14.63;100.00
46303;BME280;32029;51.358;5.628;2024-02-15T03:00:16;101299.94;;;14.63;100.00
46303;BME280;32029;51.358;5.628;2024-02-15T03:02:48;101300.38;;;14.67;100.00
46303;BME280;32029;51.358;5.628;2024-02-15T03:05:15;101307.66;;;14.81;100.00
46303;BME280;32029;51.358;5.628;2024-02-15T03:07:42;101304.72;;;14.89;100.00
46303;BME280;32029;51.358;5.628;2024-02-15T03:10:09;101313.69;;;14.91;100.00
46303;BME280;32029;51.358;5.628;2024-02-15T03:12:40;101316.69;;;14.97;100.00
46303;BME280;32029;51.358;5.628;2024-02-15T03:15:08;101308.78;;;14.87;100.00
46303;BME280;32029;51.358;5.628;2024-02-15T03:17:39;101308.97;;;14.85;100.00
46303;BME280;32029;51.358;5.628;2024-02-15T03:20:07;101316.41;;;14.85;100.00
46303;BME280;32029;51.358;5.628;2024-02-15T03:22:52;101307.94;;;14.86;100.00
46303;BME280;32029;51.358;5.628;2024-02-15T03:25:21;101298.28;;;14.76;100.00
46303;BME280;32029;51.358;5.628;2024-02-15T03:27:53;101303.16;;;14.74;100.00
46303;BME280;32029;51.358;5.628;2024-02-15T03:30:26;101296.63;;;14.81;100.00
46303;BME280;32029;51.358;5.628;2024-02-15T03:32:53;101303.00;;;14.82;100.00
46303;BME280;32029;51.358;5.628;2024-02-15T03:35:23;101304.94;;;14.88;100.00
46303;BME280;32029;51.358;5.628;2024-02-15T03:37:51;101313.72;;;14.98;100.00
46303;BME280;32029;51.358;5.628;2024-02-15T03:40:19;101289.44;;;14.93;100.00
46303;BME280;32029;51.358;5.628;2024-02-15T03:42:47;101312.00;;;14.90;100.00
46303;BME280;32029;51.358;5.628;2024-02-15T03:45:14;101306.06;;;15.00;100.00
46303;BME280;32029;51.358;5.628;2024-02-15T03:47:41;101304.38;;;14.99;100.00
46303;BME280;32029;51.358;5.628;2024-02-15T03:50:09;101301.84;;;15.04;100.00
46303;BME280;32029;51.358;5.628;2024-02-15T03:52:37;101295.88;;;15.01;100.00
46303;BME280;32029;51.358;5.628;2024-02-15T03:55:05;101308.22;;;14.98;100.00
46303;BME280;32029;51.358;5.628;2024-02-15T03:57:33;101301.53;;;14.86;100.00
46303;BME280;32029;51.358;5.628;2024-02-15T04:00:00;101303.28;;;14.93;100.00
46303;BME280;32029;51.358;5.628;2024-02-15T04:02:28;101305.53;;;14.77;100.00
46303;BME280;32029;51.358;5.628;2024-02-15T04:04:57;101304.44;;;14.78;100.00
46303;BME280;32029;51.358;5.628;2024-02-15T04:07:25;101313.59;;;14.78;100.00
46303;BME280;32029;51.358;5.628;2024-02-15T04:09:54;101320.00;;;14.79;100.00
46303;BME280;32029;51.358;5.628;2024-02-15T04:12:22;101311.81;;;14.64;100.00
46303;BME280;32029;51.358;5.628;2024-02-15T04:14:50;101323.72;;;14.64;100.00
46303;BME280;32029;51.358;5.628;2024-02-15T04:17:17;101304.16;;;14.59;100.00
46303;BME280;32029;51.358;5.628;2024-02-15T04:19:48;101316.66;;;14.55;100.00
46303;BME280;32029;51.358;5.628;2024-02-15T04:22:18;101308.94;;;14.51;100.00
46303;BME280;32029;51.358;5.628;2024-02-15T04:24:45;101314.69;;;14.49;100.00
46303;BME280;32029;51.358;5.628;2024-02-15T04:27:12;101301.91;;;14.48;100.00
46303;BME280;32029;51.358;5.628;2024-02-15T04:29:41;101311.38;;;14.39;100.00
46303;BME280;32029;51.358;5.628;2024-02-15T04:32:10;101307.31;;;14.35;100.00
46303;BME280;32029;51.358;5.628;2024-02-15T04:34:38;101298.84;;;14.36;100.00
46303;BME280;32029;51.358;5.628;2024-02-15T04:37:05;101303.91;;;14.33;100.00
46303;BME280;32029;51.358;5.628;2024-02-15T04:39:36;101289.44;;;14.31;100.00
46303;BME280;32029;51.358;5.628;2024-02-15T04:42:04;101286.28;;;14.34;100.00
46303;BME280;32029;51.358;5.628;2024-02-15T04:44:33;101291.19;;;14.32;100.00
46303;BME280;32029;51.358;5.628;2024-02-15T04:47:03;101291.19;;;14.32;100.00
46303;BME280;32029;51.358;5.628;2024-02-15T04:49:34;101296.03;;;14.30;100.00
46303;BME280;32029;51.358;5.628;2024-02-15T04:52:05;101282.63;;;14.27;100.00
46303;BME280;32029;51.358;5.628;2024-02-15T04:54:34;101286.91;;;14.29;100.00
46303;BME280;32029;51.358;5.628;2024-02-15T04:57:00;101279.16;;;14.18;100.00
46303;BME280;32029;51.358;5.628;2024-02-15T04:59:28;101283.03;;;14.23;100.00
46303;BME280;32029;51.358;5.628;2024-02-15T05:01:58;101264.66;;;14.09;100.00
46303;BME280;32029;51.358;5.628;2024-02-15T05:04:24;101278.78;;;14.21;100.00
46303;BME280;32029;51.358;5.628;2024-02-15T05:06:51;101271.13;;;14.23;100.00
46303;BME280;32029;51.358;5.628;2024-02-15T05:09:20;101278.41;;;14.31;100.00
46303;BME280;32029;51.358;5.628;2024-02-15T05:11:49;101257.53;;;14.21;100.00
46303;BME280;32029;51.358;5.628;2024-02-15T05:14:17;101270.78;;;14.33;100.00
46303;BME280;32029;51.358;5.628;2024-02-15T05:16:46;101260.53;;;14.27;100.00
46303;BME280;32029;51.358;5.628;2024-02-15T05:19:17;101271.84;;;14.32;100.00
46303;BME280;32029;51.358;5.628;2024-02-15T05:21:46;101229.19;;;14.06;100.00
46303;BME280;32029;51.358;5.628;2024-02-15T05:24:13;101257.16;;;14.31;100.00
46303;BME280;32029;51.358;5.628;2024-02-15T05:26:43;101264.91;;;14.42;100.00
46303;BME280;32029;51.358;5.628;2024-02-15T05:29:13;101263.81;;;14.37;100.00
46303;BME280;32029;51.358;5.628;2024-02-15T05:31:41;101261.91;;;14.37;100.00
46303;BME280;32029;51.358;5.628;2024-02-15T05:34:09;101273.84;;;14.44;100.00
46303;BME280;32029;51.358;5.628;2024-02-15T05:36:38;101267.22;;;14.39;100.00
46303;BME280;32029;51.358;5.628;2024-02-15T05:39:05;101259.75;;;14.33;100.00
46303;BME280;32029;51.358;5.628;2024-02-15T05:41:32;101284.09;;;14.51;100.00
46303;BME280;32029;51.358;5.628;2024-02-15T05:43:59;101275.75;;;14.44;100.00
46303;BME280;32029;51.358;5.628;2024-02-15T05:46:27;101267.88;;;14.41;100.00
46303;BME280;32029;51.358;5.628;2024-02-15T05:48:58;101274.97;;;14.50;100.00
46303;BME280;32029;51.358;5.628;2024-02-15T05:51:27;101284.66;;;14.67;100.00
46303;BME280;32029;51.358;5.628;2024-02-15T05:53:54;101275.69;;;14.65;100.00
46303;BME280;32029;51.358;5.628;2024-02-15T05:56:26;101271.88;;;14.66;100.00
46303;BME280;32029;51.358;5.628;2024-02-15T05:58:54;101272.03;;;14.58;100.00
46303;BME280;32029;51.358;5.628;2024-02-15T06:01:20;101270.34;;;14.57;100.00
46303;BME280;32029;51.358;5.628;2024-02-15T06:03:48;101277.63;;;14.65;100.00
46303;BME280;32029;51.358;5.628;2024-02-15T06:06:16;101281.50;;;14.70;100.00
46303;BME280;32029;51.358;5.628;2024-02-15T06:08:46;101280.38;;;14.65;100.00
46303;BME280;32029;51.358;5.628;2024-02-15T06:11:13;101266.06;;;14.55;100.00
46303;BME280;32029;51.358;5.628;2024-02-15T06:13:41;101270.09;;;14.52;100.00
46303;BME280;32029;51.358;5.628;2024-02-15T06:16:09;101269.25;;;14.52;100.00
46303;BME280;32029;51.358;5.628;2024-02-15T06:18:37;101246.59;;;14.35;100.00
46303;BME280;32029;51.358;5.628;2024-02-15T06:21:05;101250.47;;;14.40;100.00
46303;BME280;32029;51.358;5.628;2024-02-15T06:23:33;101241.06;;;14.35;100.00
46303;BME280;32029;51.358;5.628;2024-02-15T06:26:00;101247.00;;;14.32;100.00
46303;BME280;32029;51.358;5.628;2024-02-15T06:28:30;101237.81;;;14.25;100.00
46303;BME280;32029;51.358;5.628;2024-02-15T06:31:15;101212.19;;;14.03;100.00
46303;BME280;32029;51.358;5.628;2024-02-15T06:34:00;101259.25;;;14.22;100.00
46303;BME280;32029;51.358;5.628;2024-02-15T06:36:47;101247.75;;;14.19;100.00
46303;BME280;32029;51.358;5.628;2024-02-15T06:39:34;101242.69;;;14.22;100.00
46303;BME280;32029;51.358;5.628;2024-02-15T06:42:14;101246.50;;;14.21;100.00
46303;BME280;32029;51.358;5.628;2024-02-15T06:44:47;101240.06;;;14.14;100.00
46303;BME280;32029;51.358;5.628;2024-02-15T06:47:15;101229.50;;;14.18;100.00
46303;BME280;32029;51.358;5.628;2024-02-15T06:49:46;101235.47;;;14.21;100.00
46303;BME280;32029;51.358;5.628;2024-02-15T06:52:13;101241.84;;;14.22;100.00
46303;BME280;32029;51.358;5.628;2024-02-15T06:54:41;101227.19;;;14.21;100.00
46303;BME280;32029;51.358;5.628;2024-02-15T06:57:10;101234.22;;;14.24;100.00
46303;BME280;32029;51.358;5.628;2024-02-15T06:59:38;101238.00;;;14.23;100.00
46303;BME280;32029;51.358;5.628;2024-02-15T07:02:07;101231.25;;;14.26;100.00
46303;BME280;32029;51.358;5.628;2024-02-15T07:04:34;101246.19;;;14.38;100.00
46303;BME280;32029;51.358;5.628;2024-02-15T07:07:01;101240.66;;;14.38;100.00
46303;BME280;32029;51.358;5.628;2024-02-15T07:09:30;101245.66;;;14.49;100.00
46303;BME280;32029;51.358;5.628;2024-02-15T07:11:58;101232.22;;;14.46;100.00
46303;BME280;32029;51.358;5.628;2024-02-15T07:14:25;101251.84;;;14.51;100.00
46303;BME280;32029;51.358;5.628;2024-02-15T07:16:54;101243.13;;;14.54;100.00
46303;BME280;32029;51.358;5.628;2024-02-15T07:19:23;101245.09;;;14.60;100.00
46303;BME280;32029;51.358;5.628;2024-02-15T07:21:50;101246.38;;;14.64;100.00
46303;BME280;32029;51.358;5.628;2024-02-15T07:24:18;101230.00;;;14.56;100.00
46303;BME280;32029;51.358;5.628;2024-02-15T07:26:47;101225.09;;;14.58;100.00
46303;BME280;32029;51.358;5.628;2024-02-15T07:29:13;101226.00;;;14.65;100.00
46303;BME280;32029;51.358;5.628;2024-02-15T07:31:41;101206.38;;;14.54;100.00
46303;BME280;32029;51.358;5.628;2024-02-15T07:34:08;101196.69;;;14.64;100.00
46303;BME280;32029;51.358;5.628;2024-02-15T07:36:37;101198.38;;;14.65;100.00
46303;BME280;32029;51.358;5.628;2024-02-15T07:39:05;101206.25;;;14.68;100.00
46303;BME280;32029;51.358;5.628;2024-02-15T07:41:32;101186.03;;;14.61;100.00
46303;BME280;32029;51.358;5.628;2024-02-15T07:44:00;101206.47;;;14.67;100.00
46303;BME280;32029;51.358;5.628;2024-02-15T07:46:27;101197.94;;;14.62;100.00
46303;BME280;32029;51.358;5.628;2024-02-15T07:48:54;101212.84;;;14.67;100.00
46303;BME280;32029;51.358;5.628;2024-02-15T07:51:22;101213.28;;;14.71;100.00
46303;BME280;32029;51.358;5.628;2024-02-15T07:53:49;101213.47;;;14.69;100.00
46303;BME280;32029;51.358;5.628;2024-02-15T07:56:17;101201.53;;;14.62;100.00
46303;BME280;32029;51.358;5.628;2024-02-15T07:58:48;101211.72;;;14.62;100.00
46303;BME280;32029;51.358;5.628;2024-02-15T08:01:15;101213.25;;;14.64;100.00
46303;BME280;32029;51.358;5.628;2024-02-15T08:03:48;101216.44;;;14.68;100.00
46303;BME280;32029;51.358;5.628;2024-02-15T08:06:16;101194.97;;;14.63;100.00
46303;BME280;32029;51.358;5.628;2024-02-15T08:08:46;101227.31;;;14.76;100.00
46303;BME280;32029;51.358;5.628;2024-02-15T08:11:15;101226.47;;;14.76;100.00
46303;BME280;32029;51.358;5.628;2024-02-15T08:13:46;101229.06;;;14.84;100.00
46303;BME280;32029;51.358;5.628;2024-02-15T08:16:16;101227.78;;;14.80;100.00
46303;BME280;32029;51.358;5.628;2024-02-15T08:18:43;101211.19;;;14.80;100.00
46303;BME280;32029;51.358;5.628;2024-02-15T08:21:12;101229.31;;;14.95;100.00
46303;BME280;32029;51.358;5.628;2024-02-15T08:23:40;101233.38;;;15.00;100.00
46303;BME280;32029;51.358;5.628;2024-02-15T08:26:07;101220.22;;;15.08;100.00
46303;BME280;32029;51.358;5.628;2024-02-15T08:28:34;101221.91;;;15.09;100.00
46303;BME280;32029;51.358;5.628;2024-02-15T08:31:01;101214.06;;;15.13;100.00
46303;BME280;32029;51.358;5.628;2024-02-15T08:33:31;101207.94;;;15.17;100.00
46303;BME280;32029;51.358;5.628;2024-02-15T08:35:59;101209.22;;;15.22;100.00
46303;BME280;32029;51.358;5.628;2024-02-15T08:38:29;101209.22;;;15.22;100.00
46303;BME280;32029;51.358;5.628;2024-02-15T08:40:57;101191.94;;;15.13;100.00
46303;BME280;32029;51.358;5.628;2024-02-15T08:43:25;101193.91;;;15.19;100.00
46303;BME280;32029;51.358;5.628;2024-02-15T08:45:52;101196.44;;;15.20;100.00
46303;BME280;32029;51.358;5.628;2024-02-15T08:48:20;101198.16;;;15.22;100.00
46303;BME280;32029;51.358;5.628;2024-02-15T08:50:51;101196.03;;;15.24;100.00
46303;BME280;32029;51.358;5.628;2024-02-15T08:58:35;101204.97;;;15.32;100.00
46303;BME280;32029;51.358;5.628;2024-02-15T09:01:03;101083.22;;;14.59;100.00
46303;BME280;32029;51.358;5.628;2024-02-15T09:03:39;101081.50;;;14.58;100.00
46303;BME280;32029;51.358;5.628;2024-02-15T09:06:23;100906.16;;;13.53;100.00
46303;BME280;32029;51.358;5.628;2024-02-15T09:08:51;101171.31;;;15.09;100.00
46303;BME280;32029;51.358;5.628;2024-02-15T09:11:21;101155.38;;;15.04;100.00
46303;BME280;32029;51.358;5.628;2024-02-15T09:19:05;101126.19;;;14.82;100.00
46303;BME280;32029;51.358;5.628;2024-02-15T09:21:33;101091.50;;;14.66;100.00
46303;BME280;32029;51.358;5.628;2024-02-15T09:24:04;101090.44;;;14.60;100.00
46303;BME280;32029;51.358;5.628;2024-02-15T09:26:34;101195.66;;;15.33;100.00
46303;BME280;32029;51.358;5.628;2024-02-15T09:29:01;101198.84;;;15.37;100.00
46303;BME280;32029;51.358;5.628;2024-02-15T09:31:30;101158.59;;;15.21;100.00
46303;BME280;32029;51.358;5.628;2024-02-15T09:36:36;101199.06;;;15.49;100.00
46303;BME280;32029;51.358;5.628;2024-02-15T09:39:05;101179.06;;;15.47;100.00
46303;BME280;32029;51.358;5.628;2024-02-15T09:41:33;101174.59;;;15.52;100.00
46303;BME280;32029;51.358;5.628;2024-02-15T09:44:01;101176.31;;;15.53;100.00
46303;BME280;32029;51.358;5.628;2024-02-15T09:46:41;101205.94;;;15.73;100.00
46303;BME280;32029;51.358;5.628;2024-02-15T09:49:09;101208.50;;;15.81;100.00
46303;BME280;32029;51.358;5.628;2024-02-15T09:51:36;101194.00;;;15.79;100.00
46303;BME280;32029;51.358;5.628;2024-02-15T09:54:05;101202.31;;;15.92;100.00
46303;BME280;32029;51.358;5.628;2024-02-15T09:56:34;101204.00;;;15.93;100.00
46303;BME280;32029;51.358;5.628;2024-02-15T09:59:01;101207.63;;;15.93;100.00
46303;BME280;32029;51.358;5.628;2024-02-15T10:01:31;101198.25;;;15.95;100.00
46303;BME280;32029;51.358;5.628;2024-02-15T10:04:01;101204.44;;;16.03;100.00
46303;BME280;32029;51.358;5.628;2024-02-15T10:06:34;101206.34;;;16.16;100.00
46303;BME280;32029;51.358;5.628;2024-02-15T10:12:00;101214.41;;;16.31;100.00
46303;BME280;32029;51.358;5.628;2024-02-15T10:14:28;101202.03;;;16.40;100.00
46303;BME280;32029;51.358;5.628;2024-02-15T10:16:56;101203.28;;;16.51;100.00
46303;BME280;32029;51.358;5.628;2024-02-15T10:19:23;101193.47;;;16.48;100.00
46303;BME280;32029;51.358;5.628;2024-02-15T10:21:54;101204.72;;;16.66;100.00
46303;BME280;32029;51.358;5.628;2024-02-15T10:24:24;101185.34;;;16.66;100.00
46303;BME280;32029;51.358;5.628;2024-02-15T10:27:00;101193.78;;;16.85;100.00
46303;BME280;32029;51.358;5.628;2024-02-15T10:29:30;101196.34;;;16.93;100.00
46303;BME280;32029;51.358;5.628;2024-02-15T10:32:00;101202.94;;;16.92;100.00
46303;BME280;32029;51.358;5.628;2024-02-15T10:34:27;101196.28;;;17.00;100.00
46303;BME280;32029;51.358;5.628;2024-02-15T10:36:54;101200.56;;;17.02;100.00
46303;BME280;32029;51.358;5.628;2024-02-15T10:39:24;101177.13;;;16.98;100.00
46303;BME280;32029;51.358;5.628;2024-02-15T10:41:53;101197.25;;;17.19;100.00
46303;BME280;32029;51.358;5.628;2024-02-15T10:44:22;101193.63;;;17.25;100.00
46303;BME280;32029;51.358;5.628;2024-02-15T10:46:53;101185.47;;;17.30;100.00
46303;BME280;32029;51.358;5.628;2024-02-15T10:49:24;101190.13;;;17.36;100.00
46303;BME280;32029;51.358;5.628;2024-02-15T10:51:58;101186.28;;;17.37;100.00
46303;BME280;32029;51.358;5.628;2024-02-15T10:57:03;101189.66;;;17.39;100.00
46303;BME280;32029;51.358;5.628;2024-02-15T10:59:35;101181.97;;;17.41;100.00
46303;BME280;32029;51.358;5.628;2024-02-15T11:02:25;101170.84;;;17.48;100.00
46303;BME280;32029;51.358;5.628;2024-02-15T11:04:54;101185.47;;;17.61;100.00
46303;BME280;32029;51.358;5.628;2024-02-15T11:07:25;101169.03;;;17.60;100.00
46303;BME280;32029;51.358;5.628;2024-02-15T11:09:55;101156.19;;;17.66;100.00
46303;BME280;32029;51.358;5.628;2024-02-15T11:12:23;101172.94;;;17.84;100.00
46303;BME280;32029;51.358;5.628;2024-02-15T11:14:52;101170.47;;;17.94;100.00
46303;BME280;32029;51.358;5.628;2024-02-15T11:20:06;101151.47;;;18.16;100.00
46303;BME280;32029;51.358;5.628;2024-02-15T11:22:41;101138.06;;;18.31;100.00
46303;BME280;32029;51.358;5.628;2024-02-15T11:25:10;101154.50;;;18.51;100.00
46303;BME280;32029;51.358;5.628;2024-02-15T11:27:39;101150.69;;;18.64;100.00
46303;BME280;32029;51.358;5.628;2024-02-15T11:30:07;101150.78;;;18.76;100.00
46303;BME280;32029;51.358;5.628;2024-02-15T11:32:48;101157.03;;;18.90;100.00
46303;BME280;32029;51.358;5.628;2024-02-15T11:35:22;101144.13;;;18.95;100.00
46303;BME280;32029;51.358;5.628;2024-02-15T11:37:55;101133.44;;;19.10;100.00
46303;BME280;32029;51.358;5.628;2024-02-15T11:40:26;101144.84;;;19.21;100.00
46303;BME280;32029;51.358;5.628;2024-02-15T11:42:58;101135.34;;;19.40;100.00
46303;BME280;32029;51.358;5.628;2024-02-15T11:45:27;101143.63;;;19.58;100.00
46303;BME280;32029;51.358;5.628;2024-02-15T11:48:14;101139.28;;;19.63;100.00
46303;BME280;32029;51.358;5.628;2024-02-15T11:50:42;101125.50;;;19.68;100.00
46303;BME280;32029;51.358;5.628;2024-02-15T11:53:08;101115.19;;;19.68;100.00
46303;BME280;32029;51.358;5.628;2024-02-15T11:55:37;101123.09;;;19.83;100.00
46303;BME280;32029;51.358;5.628;2024-02-15T11:58:07;101118.00;;;20.03;100.00
46303;BME280;32029;51.358;5.628;2024-02-15T12:00:37;101104.91;;;20.16;100.00
46303;BME280;32029;51.358;5.628;2024-02-15T12:03:23;101111.63;;;20.43;100.00
46303;BME280;32029;51.358;5.628;2024-02-15T12:06:10;101094.31;;;20.53;100.00
46303;BME280;32029;51.358;5.628;2024-02-15T12:08:56;101100.44;;;20.67;100.00
46303;BME280;32029;51.358;5.628;2024-02-15T12:11:42;101096.78;;;20.78;100.00
46303;BME280;32029;51.358;5.628;2024-02-15T12:14:28;101080.59;;;20.92;100.00
46303;BME280;32029;51.358;5.628;2024-02-15T12:17:14;101106.44;;;21.16;100.00
46303;BME280;32029;51.358;5.628;2024-02-15T12:20:01;101101.28;;;21.24;100.00
46303;BME280;32029;51.358;5.628;2024-02-15T12:22:45;101083.50;;;21.14;100.00
46303;BME280;32029;51.358;5.628;2024-02-15T12:25:15;101092.69;;;21.26;100.00
46303;BME280;32029;51.358;5.628;2024-02-15T12:27:46;101093.88;;;21.30;100.00
46303;BME280;32029;51.358;5.628;2024-02-15T12:30:15;101089.97;;;21.31;100.00
46303;BME280;32029;51.358;5.628;2024-02-15T12:32:42;101088.28;;;21.30;100.00
46303;BME280;32029;51.358;5.628;2024-02-15T12:35:11;101071.03;;;21.33;100.00
46303;BME280;32029;51.358;5.628;2024-02-15T12:37:43;101075.47;;;21.46;100.00
46303;BME280;32029;51.358;5.628;2024-02-15T12:40:11;101076.56;;;21.62;100.00
46303;BME280;32029;51.358;5.628;2024-02-15T12:42:44;101055.63;;;21.64;87.16
46303;BME280;32029;51.358;5.628;2024-02-15T12:45:18;101059.94;;;21.72;86.58
46303;BME280;32029;51.358;5.628;2024-02-15T12:47:50;101062.75;;;21.72;87.24
46303;BME280;32029;51.358;5.628;2024-02-15T12:50:20;101065.63;;;21.77;86.22
46303;BME280;32029;51.358;5.628;2024-02-15T12:52:49;101060.44;;;21.86;86.63
46303;BME280;32029;51.358;5.628;2024-02-15T12:55:21;101054.75;;;21.97;84.96
46303;BME280;32029;51.358;5.628;2024-02-15T12:57:51;101047.03;;;22.05;86.00
46303;BME280;32029;51.358;5.628;2024-02-15T13:00:20;101045.41;;;22.09;84.71
46303;BME280;32029;51.358;5.628;2024-02-15T13:02:50;101038.31;;;22.01;83.68
46303;BME280;32029;51.358;5.628;2024-02-15T13:05:18;101048.78;;;22.11;83.59
46303;BME280;32029;51.358;5.628;2024-02-15T13:07:49;101044.25;;;22.05;84.53
46303;BME280;32029;51.358;5.628;2024-02-15T13:10:18;101039.16;;;22.01;83.74
46303;BME280;32029;51.358;5.628;2024-02-15T13:12:45;101041.44;;;22.05;84.10